F/V Mailys Charlie — FMIW — position and weather

sailwx.info

Track history (hours):
 
Tides and Currents Weather Stations Pressure Air Temp Water Temp Dewpoint Dewpoint Depression Visibility Wind Speed Wind Dir Waves Ship Positions

F/V Mailys Charlie

Last reported at 2015-Aug-22 14:33 UTC. Time now 2015-Aug-30 15:58 UTC.
Position N 47°31' W 003°41'.
Warning: this ship's position is 8 days out of date.

Length 19 m.

Type: Fishing. MMSI: 228240800.

Date/timePositionNaut miles runAvg speedWind from/ knotsBaromVisibWave heightAir tempDewpointWater temp
2015-Aug-22 14:33N 47°31' W 003°41'9 9.2
2015-Aug-22 13:33N 47°28' W 003°28'9 9.2
2015-Aug-22 12:33N 47°26' W 003°15'10 9.6
2015-Aug-22 11:33N 47°26' W 003°01'9 9.1
2015-Aug-22 10:33N 47°24' W 002°48'9 8.8
2015-Aug-22 09:33N 47°21' W 002°35'2 2.3
2015-Aug-22 08:33N 47°19' W 002°33'3 3.4
2015-Aug-22 07:33N 47°17' W 002°36'5 5.4
2015-Aug-22 06:33N 47°21' W 002°31'0 0.0
2015-Aug-22 05:33N 47°21' W 002°31'0 0.0
2015-Aug-22 04:33N 47°21' W 002°31'0 0.0
2015-Aug-22 03:33N 47°21' W 002°31'0 0.0
2015-Aug-22 02:33N 47°21' W 002°31'0 0.0
2015-Aug-22 01:33N 47°21' W 002°31'0 0.0
2015-Aug-22 00:33N 47°21' W 002°31'0 0.0
2015-Aug-21 23:33N 47°21' W 002°31'0 0.0
2015-Aug-21 22:33N 47°21' W 002°31'0 0.0
2015-Aug-21 21:33N 47°21' W 002°31'0 0.0
2015-Aug-21 20:33N 47°21' W 002°31'0 0.0
2015-Aug-21 19:33N 47°21' W 002°31'0 0.0
2015-Aug-21 18:33N 47°21' W 002°31'0 0.0
2015-Aug-21 17:33N 47°21' W 002°31'0 0.0
2015-Aug-21 16:33N 47°21' W 002°31'0 0.0
2015-Aug-21 15:33N 47°21' W 002°31'0 0.0
2015-Aug-21 14:33N 47°21' W 002°31'0 0.0
2015-Aug-21 13:33N 47°21' W 002°31'0 0.0
2015-Aug-21 12:33N 47°21' W 002°31'0 0.0
2015-Aug-21 11:33N 47°21' W 002°31'0 0.0
2015-Aug-21 10:33N 47°21' W 002°31'0 0.0
2015-Aug-21 09:33N 47°21' W 002°31'0 0.0
2015-Aug-21 08:33N 47°21' W 002°31'0 0.0
2015-Aug-21 07:32N 47°21' W 002°31'0 0.0
2015-Aug-21 06:32N 47°21' W 002°31'0 0.0
2015-Aug-21 05:33N 47°21' W 002°31'0 0.0
2015-Aug-21 04:33N 47°21' W 002°31'0 0.0
2015-Aug-21 03:33N 47°21' W 002°31'0 0.0
2015-Aug-21 02:33N 47°21' W 002°31'0 0.0
2015-Aug-21 01:33N 47°21' W 002°31'0 0.0
2015-Aug-21 00:33N 47°21' W 002°31'0 0.0
2015-Aug-20 23:33N 47°21' W 002°31'0 0.0
2015-Aug-20 22:33N 47°21' W 002°31'0 0.0
2015-Aug-20 21:33N 47°21' W 002°31'0 0.0
2015-Aug-20 20:33N 47°21' W 002°31'8 7.7
2015-Aug-20 19:33N 47°18' W 002°42'1010.3
2015-Aug-20 18:33N 47°13' W 002°55'26 4.1
2015-Aug-20 12:11N 47°14' W 003°33'15 7.7
2015-Aug-20 10:15N 47°22' W 003°51'  
2015-Aug-18 02:16N 47°45' W 004°53'1 0.1
2015-Aug-17 21:07N 47°44' W 004°53'3 3.2
2015-Aug-17 20:08N 47°42' W 004°49'7 1.0
2015-Aug-17 13:10N 47°40' W 004°59'35 1.4
2015-Aug-16 11:15N 48°15' W 005°07'3 3.9
2015-Aug-16 10:32N 48°12' W 005°05'61 6.0
2015-Aug-16 00:25N 47°35' W 003°53'8 9.8
2015-Aug-15 23:33N 47°32' W 003°41'10 9.7
2015-Aug-15 22:33N 47°28' W 003°28'10 9.9
2015-Aug-15 21:33N 47°25' W 003°15'10 9.9
2015-Aug-15 20:33N 47°21' W 003°01'9 9.4
2015-Aug-15 19:33N 47°18' W 002°48'9 8.6
2015-Aug-15 18:33N 47°20' W 002°36'4 3.5
2015-Aug-15 17:32N 47°21' W 002°31'0 0.0
2015-Aug-15 16:33N 47°21' W 002°31'0 0.0
2015-Aug-15 15:33N 47°21' W 002°31'0 0.0
2015-Aug-15 14:33N 47°21' W 002°31'0 0.0
2015-Aug-15 13:33N 47°21' W 002°31'0 0.0
2015-Aug-15 12:33N 47°21' W 002°31'0 0.0
2015-Aug-15 11:33N 47°21' W 002°31'0 0.0
2015-Aug-15 09:32N 47°21' W 002°31'0 0.0
2015-Aug-15 08:33N 47°21' W 002°31'0 0.0
2015-Aug-15 07:32N 47°21' W 002°31'0 0.0
2015-Aug-15 06:33N 47°21' W 002°31'0 0.0
2015-Aug-15 05:33N 47°21' W 002°31'0 0.0
2015-Aug-15 04:33N 47°21' W 002°31'0 0.0
2015-Aug-15 03:33N 47°21' W 002°31'0 0.0
2015-Aug-15 02:33N 47°21' W 002°31'0 0.0
2015-Aug-15 01:33N 47°21' W 002°31'0 0.0
2015-Aug-15 00:33N 47°21' W 002°31'0 0.0
2015-Aug-14 23:33N 47°21' W 002°31'0 0.0
2015-Aug-14 22:26N 47°21' W 002°31'0 0.0
2015-Aug-14 21:33N 47°21' W 002°31'0 0.0
2015-Aug-14 20:33N 47°21' W 002°31'0 0.0
2015-Aug-14 19:33N 47°21' W 002°31'0 0.0
2015-Aug-14 18:33N 47°21' W 002°31'0 0.0
2015-Aug-14 17:33N 47°21' W 002°31'0 0.0
2015-Aug-14 16:33N 47°21' W 002°31'0 0.0
2015-Aug-14 15:33N 47°21' W 002°31'0 0.0
2015-Aug-14 14:33N 47°21' W 002°31'0 0.0
2015-Aug-14 13:33N 47°21' W 002°31'0 0.0
2015-Aug-14 12:33N 47°21' W 002°31'0 0.1
2015-Aug-14 11:33N 47°21' W 002°31'0 0.0
2015-Aug-14 10:32N 47°21' W 002°31'0 0.0
2015-Aug-14 09:33N 47°21' W 002°31'0 0.0
2015-Aug-14 08:33N 47°21' W 002°31'0 0.0
2015-Aug-14 07:33N 47°21' W 002°31'0 0.0
2015-Aug-14 06:32N 47°21' W 002°31'0 0.0
2015-Aug-14 05:31N 47°21' W 002°31'0 0.0
2015-Aug-14 04:33N 47°21' W 002°31'0 0.0
2015-Aug-14 03:31N 47°21' W 002°31'0 0.0
2015-Aug-14 01:07N 47°21' W 002°31'0 0.0
2015-Aug-14 00:32N 47°21' W 002°31'0 0.0
2015-Aug-13 23:33N 47°21' W 002°31'0 0.0
2015-Aug-13 22:33N 47°21' W 002°31'0 0.0
2015-Aug-13 21:33N 47°21' W 002°31'0 0.0
2015-Aug-13 20:33N 47°21' W 002°31'0 0.0
2015-Aug-13 19:33N 47°21' W 002°31'0 0.0
2015-Aug-13 18:33N 47°21' W 002°31'0 0.0
2015-Aug-13 17:32N 47°21' W 002°31'2 0.9
2015-Aug-13 15:27N 47°19' W 002°33'9 9.6
2015-Aug-13 14:33N 47°13' W 002°41'  
Track history (hours):
 
Tides and Currents Weather Stations Pressure Air Temp Water Temp Dewpoint Dewpoint Depression Visibility Wind Speed Wind Dir Waves Ship Positions

F/V Mailys Charlie

Last reported at 2015-Aug-22 14:33 UTC. Time now 2015-Aug-30 15:58 UTC.
Position N 47°31' W 003°41'.
Warning: this ship's position is 8 days out of date.

Length 19 m.

Type: Fishing. MMSI: 228240800.

Date/timePositionNaut miles runAvg speedWind from/ knotsBaromVisibWave heightAir tempDewpointWater temp
2015-Aug-22 14:33N 47°31' W 003°41'9 9.2
2015-Aug-22 13:33N 47°28' W 003°28'9 9.2
2015-Aug-22 12:33N 47°26' W 003°15'10 9.6
2015-Aug-22 11:33N 47°26' W 003°01'9 9.1
2015-Aug-22 10:33N 47°24' W 002°48'9 8.8
2015-Aug-22 09:33N 47°21' W 002°35'2 2.3
2015-Aug-22 08:33N 47°19' W 002°33'3 3.4
2015-Aug-22 07:33N 47°17' W 002°36'5 5.4
2015-Aug-22 06:33N 47°21' W 002°31'0 0.0
2015-Aug-22 05:33N 47°21' W 002°31'0 0.0
2015-Aug-22 04:33N 47°21' W 002°31'0 0.0
2015-Aug-22 03:33N 47°21' W 002°31'0 0.0
2015-Aug-22 02:33N 47°21' W 002°31'0 0.0
2015-Aug-22 01:33N 47°21' W 002°31'0 0.0
2015-Aug-22 00:33N 47°21' W 002°31'0 0.0
2015-Aug-21 23:33N 47°21' W 002°31'0 0.0
2015-Aug-21 22:33N 47°21' W 002°31'0 0.0
2015-Aug-21 21:33N 47°21' W 002°31'0 0.0
2015-Aug-21 20:33N 47°21' W 002°31'0 0.0
2015-Aug-21 19:33N 47°21' W 002°31'0 0.0
2015-Aug-21 18:33N 47°21' W 002°31'0 0.0
2015-Aug-21 17:33N 47°21' W 002°31'0 0.0
2015-Aug-21 16:33N 47°21' W 002°31'0 0.0
2015-Aug-21 15:33N 47°21' W 002°31'0 0.0
2015-Aug-21 14:33N 47°21' W 002°31'0 0.0
2015-Aug-21 13:33N 47°21' W 002°31'0 0.0
2015-Aug-21 12:33N 47°21' W 002°31'0 0.0
2015-Aug-21 11:33N 47°21' W 002°31'0 0.0
2015-Aug-21 10:33N 47°21' W 002°31'0 0.0
2015-Aug-21 09:33N 47°21' W 002°31'0 0.0
2015-Aug-21 08:33N 47°21' W 002°31'0 0.0
2015-Aug-21 07:32N 47°21' W 002°31'0 0.0
2015-Aug-21 06:32N 47°21' W 002°31'0 0.0
2015-Aug-21 05:33N 47°21' W 002°31'0 0.0
2015-Aug-21 04:33N 47°21' W 002°31'0 0.0
2015-Aug-21 03:33N 47°21' W 002°31'0 0.0
2015-Aug-21 02:33N 47°21' W 002°31'0 0.0
2015-Aug-21 01:33N 47°21' W 002°31'0 0.0
2015-Aug-21 00:33N 47°21' W 002°31'0 0.0
2015-Aug-20 23:33N 47°21' W 002°31'0 0.0
2015-Aug-20 22:33N 47°21' W 002°31'0 0.0
2015-Aug-20 21:33N 47°21' W 002°31'0 0.0
2015-Aug-20 20:33N 47°21' W 002°31'8 7.7
2015-Aug-20 19:33N 47°18' W 002°42'1010.3
2015-Aug-20 18:33N 47°13' W 002°55'26 4.1
2015-Aug-20 12:11N 47°14' W 003°33'15 7.7
2015-Aug-20 10:15N 47°22' W 003°51'  
2015-Aug-18 02:16N 47°45' W 004°53'1 0.1
2015-Aug-17 21:07N 47°44' W 004°53'3 3.2
2015-Aug-17 20:08N 47°42' W 004°49'7 1.0
2015-Aug-17 13:10N 47°40' W 004°59'35 1.4
2015-Aug-16 11:15N 48°15' W 005°07'3 3.9
2015-Aug-16 10:32N 48°12' W 005°05'61 6.0
2015-Aug-16 00:25N 47°35' W 003°53'8 9.8
2015-Aug-15 23:33N 47°32' W 003°41'10 9.7
2015-Aug-15 22:33N 47°28' W 003°28'10 9.9
2015-Aug-15 21:33N 47°25' W 003°15'10 9.9
2015-Aug-15 20:33N 47°21' W 003°01'9 9.4
2015-Aug-15 19:33N 47°18' W 002°48'9 8.6
2015-Aug-15 18:33N 47°20' W 002°36'4 3.5
2015-Aug-15 17:32N 47°21' W 002°31'0 0.0
2015-Aug-15 16:33N 47°21' W 002°31'0 0.0
2015-Aug-15 15:33N 47°21' W 002°31'0 0.0
2015-Aug-15 14:33N 47°21' W 002°31'0 0.0
2015-Aug-15 13:33N 47°21' W 002°31'0 0.0
2015-Aug-15 12:33N 47°21' W 002°31'0 0.0
2015-Aug-15 11:33N 47°21' W 002°31'0 0.0
2015-Aug-15 09:32N 47°21' W 002°31'0 0.0
2015-Aug-15 08:33N 47°21' W 002°31'0 0.0
2015-Aug-15 07:32N 47°21' W 002°31'0 0.0
2015-Aug-15 06:33N 47°21' W 002°31'0 0.0
2015-Aug-15 05:33N 47°21' W 002°31'0 0.0
2015-Aug-15 04:33N 47°21' W 002°31'0 0.0
2015-Aug-15 03:33N 47°21' W 002°31'0 0.0
2015-Aug-15 02:33N 47°21' W 002°31'0 0.0
2015-Aug-15 01:33N 47°21' W 002°31'0 0.0
2015-Aug-15 00:33N 47°21' W 002°31'0 0.0
2015-Aug-14 23:33N 47°21' W 002°31'0 0.0
2015-Aug-14 22:26N 47°21' W 002°31'0 0.0
2015-Aug-14 21:33N 47°21' W 002°31'0 0.0
2015-Aug-14 20:33N 47°21' W 002°31'0 0.0
2015-Aug-14 19:33N 47°21' W 002°31'0 0.0
2015-Aug-14 18:33N 47°21' W 002°31'0 0.0
2015-Aug-14 17:33N 47°21' W 002°31'0 0.0
2015-Aug-14 16:33N 47°21' W 002°31'0 0.0
2015-Aug-14 15:33N 47°21' W 002°31'0 0.0
2015-Aug-14 14:33N 47°21' W 002°31'0 0.0
2015-Aug-14 13:33N 47°21' W 002°31'0 0.0
2015-Aug-14 12:33N 47°21' W 002°31'0 0.1
2015-Aug-14 11:33N 47°21' W 002°31'0 0.0
2015-Aug-14 10:32N 47°21' W 002°31'0 0.0
2015-Aug-14 09:33N 47°21' W 002°31'0 0.0
2015-Aug-14 08:33N 47°21' W 002°31'0 0.0
2015-Aug-14 07:33N 47°21' W 002°31'0 0.0
2015-Aug-14 06:32N 47°21' W 002°31'0 0.0
2015-Aug-14 05:31N 47°21' W 002°31'0 0.0
2015-Aug-14 04:33N 47°21' W 002°31'0 0.0
2015-Aug-14 03:31N 47°21' W 002°31'0 0.0
2015-Aug-14 01:07N 47°21' W 002°31'0 0.0
2015-Aug-14 00:32N 47°21' W 002°31'0 0.0
2015-Aug-13 23:33N 47°21' W 002°31'0 0.0
2015-Aug-13 22:33N 47°21' W 002°31'0 0.0
2015-Aug-13 21:33N 47°21' W 002°31'0 0.0
2015-Aug-13 20:33N 47°21' W 002°31'0 0.0
2015-Aug-13 19:33N 47°21' W 002°31'0 0.0
2015-Aug-13 18:33N 47°21' W 002°31'0 0.0
2015-Aug-13 17:32N 47°21' W 002°31'2 0.9
2015-Aug-13 15:27N 47°19' W 002°33'9 9.6
2015-Aug-13 14:33N 47°13' W 002°41'  

Dump ship's entire track history